Date,TemperatureHighF,TemperatureAvgF,TemperatureLowF,DewpointHighF,DewpointAvgF,DewpointLowF,HumidityHigh,HumidityAvg,HumidityLow,PressureMaxIn,PressureMinIn,WindSpeedMaxMPH,WindSpeedAvgMPH,GustSpeedMaxMPH,PrecipitationSumIn
2013-1-1,50.6,48.9,46.5,49.5,43.0,29.6,97,82,47,30.18,29.96,12,3,12,0.38
2013-1-2,50.5,48.0,44.8,49.5,45.5,40.6,98,91,83,30.19,29.90,12,2,12,0.17
2013-1-3,44.8,41.9,35.9,41.7,39.5,34.7,96,91,85,30.31,30.13,11,1,12,0.01
2013-1-4,50.4,39.0,30.0,34.7,29.7,21.4,97,72,43,30.39,30.27,16,2,16,0.01
2013-1-5,50.8,39.5,28.7,32.8,26.2,21.3,82,60,38,30.47,30.27,10,2,10,0.00
2013-1-6,50.4,44.7,39.7,42.4,38.1,31.9,92,78,65,30.28,30.09,12,2,12,0.00
2013-1-7,52.2,42.5,32.6,35.8,31.8,29.2,88,67,46,30.47,30.23,13,1,13,0.00
2013-1-8,56.2,46.2,34.9,43.7,37.7,30.3,86,73,58,30.49,30.39,9,1,9,0.00
2013-1-9,67.8,54.6,39.7,52.1,46.0,37.4,92,74,52,30.50,30.39,11,1,11,0.00
2013-1-10,68.8,59.2,49.3,52.5,49.6,46.1,93,72,49,30.52,30.38,13,2,13,0.00
2013-1-11,58.7,53.4,48.9,56.2,51.8,48.1,97,94,83,30.38,30.17,14,2,14,0.01
2013-1-12,75.5,62.9,52.7,63.6,58.7,51.9,98,87,59,30.20,30.11,17,3,19,0.01
2013-1-13,73.4,64.9,57.8,62.1,59.5,56.3,95,83,66,30.16,30.06,18,5,19,0.00
2013-1-14,74.0,66.1,60.9,63.8,60.4,56.7,91,82,67,30.15,30.06,15,4,15,0.00
2013-1-15,64.9,56.7,48.0,60.7,53.8,47.0,97,90,77,30.17,30.05,12,3,12,0.00
2013-1-16,52.2,48.4,44.9,51.7,47.6,44.1,98,97,97,30.07,30.00,10,1,11,0.27
2013-1-17,52.7,47.6,33.1,52.2,46.7,31.9,98,96,91,30.22,29.75,25,4,25,1.33
2013-1-18,49.9,38.5,31.1,35.3,28.6,21.9,97,71,36,30.56,30.21,15,2,15,0.04
2013-1-19,55.5,41.5,26.9,33.7,27.7,20.4,87,60,31,30.53,30.23,11,2,11,0.00
2013-1-20,64.1,49.0,34.8,38.2,33.2,29.8,85,57,32,30.23,30.05,16,3,16,0.00
2013-1-21,60.1,48.1,34.0,35.0,29.0,17.3,84,50,30,30.12,29.95,17,3,19,0.00
2013-1-22,43.4,37.5,30.7,21.4,11.8,-0.3,57,36,16,30.30,30.04,20,3,20,0.00
2013-1-23,46.5,34.8,24.8,28.7,13.9,1.4,67,43,30,30.43,30.11,15,3,15,0.00
2013-1-24,51.8,39.4,26.9,36.2,20.8,4.7,80,50,23,30.54,30.05,21,4,25,0.00
2013-1-25,26.9,25.0,22.9,23.6,14.9,5.6,91,67,40,30.55,30.21,11,1,11,0.00
2013-1-26,48.0,33.9,24.6,34.9,28.6,22.4,93,82,57,30.41,30.19,8,1,9,0.08
2013-1-27,44.7,34.5,28.7,29.6,27.7,25.1,94,77,51,30.62,30.41,12,2,12,0.00
2013-1-28,48.4,41.1,32.8,44.4,34.9,27.1,93,79,64,30.53,30.31,11,2,11,0.00
2013-1-29,71.9,57.5,41.9,60.0,51.7,40.8,97,82,61,30.31,30.07,19,4,19,0.00
2013-1-30,75.9,66.6,49.9,64.2,60.5,46.2,95,82,59,30.07,29.48,38,12,39,1.39
2013-1-31,49.9,44.7,38.6,46.5,29.4,21.4,89,57,33,30.10,29.60,31,8,32,0.01
2013-2-1,42.7,38.6,28.6,28.6,14.9,4.7,59,40,23,30.41,30.00,31,5,31,0.00
2013-2-2,48.9,35.5,22.8,36.1,15.7,7.6,90,47,23,30.45,30.11,30,4,30,0.01
2013-2-3,52.8,42.8,34.4,36.2,31.1,22.9,94,66,37,30.11,29.91,23,4,23,0.00
2013-2-4,48.9,39.3,28.8,30.3,26.1,22.2,82,60,39,30.20,30.05,13,2,13,0.00
2013-2-5,63.9,49.1,34.5,45.9,37.3,29.2,84,65,41,30.07,29.92,24,5,24,0.00
2013-2-6,65.2,52.1,36.7,45.5,35.5,26.6,97,60,25,30.24,30.01,13,2,13,0.00
2013-2-7,48.7,43.6,40.0,40.4,35.8,26.4,95,76,42,30.28,29.96,21,4,21,0.35
2013-2-8,60.3,47.4,39.1,47.7,39.5,30.2,95,76,47,30.13,29.90,21,4,21,0.01
2013-2-9,58.7,45.7,33.2,30.5,22.2,11.8,82,45,16,30.37,30.12,15,2,15,0.00
2013-2-10,58.6,48.0,37.9,48.7,30.0,19.1,95,52,27,30.48,30.22,15,4,15,0.20
2013-2-11,61.6,57.3,50.1,59.4,55.3,48.7,97,93,83,30.23,29.98,20,6,22,0.11
2013-2-12,59.9,53.0,46.7,50.8,41.7,31.4,96,69,35,30.14,29.95,13,2,13,0.12
2013-2-13,49.1,46.2,43.3,46.9,43.8,36.8,97,92,72,29.98,29.69,25,3,25,0.06
2013-2-14,50.4,42.7,34.0,37.9,34.9,30.8,91,75,55,30.12,29.91,11,2,11,0.00
2013-2-15,61.2,48.2,35.5,41.1,34.6,29.8,94,64,32,30.14,29.97,15,2,16,0.00
2013-2-16,47.3,36.5,26.1,36.8,32.3,24.2,95,85,66,30.05,29.86,19,2,20,0.14
2013-2-17,41.7,30.7,21.0,24.3,18.6,11.5,94,64,31,30.33,30.05,22,2,22,0.01
2013-2-18,54.5,40.1,25.5,27.6,22.3,12.7,79,51,33,30.45,30.26,15,4,16,0.00
2013-2-19,49.9,41.0,35.3,45.2,36.0,26.0,96,83,62,30.27,29.94,20,4,20,0.28
2013-2-20,55.1,43.7,31.2,37.4,21.7,11.7,87,45,19,30.17,30.05,14,2,14,0.00
2013-2-21,57.9,44.9,32.0,28.6,19.5,12.8,58,37,24,30.28,30.12,10,2,10,0.00
2013-2-22,49.2,39.2,36.3,35.9,33.3,23.4,96,82,39,30.32,30.14,16,2,16,0.20
2013-2-23,42.5,39.7,36.4,41.9,38.8,35.3,98,97,96,30.17,29.88,10,1,10,0.35
2013-2-24,63.9,50.7,42.3,45.9,40.1,28.9,98,72,36,30.04,29.88,14,2,14,0.01
2013-2-25,48.2,41.6,38.7,29.5,27.3,25.0,66,57,44,30.20,30.03,18,4,18,0.00
2013-2-26,48.4,40.5,33.9,47.6,38.5,26.7,97,93,63,30.09,29.59,21,4,21,1.06
2013-2-27,56.2,47.1,38.1,41.2,37.8,34.8,97,72,51,29.86,29.71,16,5,19,0.00
2013-2-28,49.8,43.9,36.4,35.3,30.2,25.5,79,60,42,29.93,29.76,20,4,20,0.00
2013-3-1,48.3,40.2,28.5,32.2,28.5,25.1,88,64,47,29.99,29.89,18,2,18,0.00
2013-3-2,45.3,39.4,34.8,35.8,31.4,24.5,91,73,62,29.98,29.88,15,2,15,0.01
2013-3-3,45.3,35.5,26.9,24.8,20.8,17.8,83,57,36,30.05,29.93,18,3,18,0.00
2013-3-4,53.9,39.8,26.6,24.1,18.3,13.9,66,45,23,30.20,30.05,17,3,17,0.00
2013-3-5,62.9,49.5,40.7,53.5,39.2,23.5,94,69,45,30.11,29.63,23,5,23,0.38
2013-3-6,50.2,42.2,34.6,46.2,27.6,21.8,87,57,38,30.16,29.63,29,8,30,0.00
2013-3-7,54.7,41.5,29.5,30.0,27.4,24.9,84,59,36,30.29,30.15,16,3,20,0.00
2013-3-8,56.1,43.3,31.0,26.3,24.0,21.2,73,49,27,30.37,30.23,20,3,20,0.00
2013-3-9,65.3,49.3,34.1,34.1,29.5,25.3,71,48,27,30.39,30.26,12,2,12,0.00
2013-3-10,67.7,54.6,40.4,40.2,35.5,32.4,77,51,31,30.33,30.18,14,3,14,0.00
2013-3-11,66.5,54.7,46.8,55.2,37.8,19.9,91,56,34,30.23,29.88,20,7,21,0.08
2013-3-12,69.8,61.4,50.7,59.5,49.9,28.9,96,71,30,29.99,29.78,25,6,27,0.57
2013-3-13,58.7,48.1,39.1,34.4,26.7,18.4,73,45,22,30.19,29.99,24,4,25,0.00
2013-3-14,53.1,41.2,29.2,24.3,18.4,14.1,66,41,23,30.34,30.19,18,3,18,0.00
2013-3-15,67.5,60.1,40.1,40.5,36.4,21.2,50,42,33,30.23,29.95,18,6,20,0.00
2013-3-16,77.3,66.3,56.2,47.5,42.5,37.5,59,44,26,29.95,29.76,34,8,34,0.00
2013-3-17,74.0,62.1,48.7,50.0,43.3,39.1,77,51,36,30.08,29.88,15,4,17,0.00
2013-3-18,45.9,43.5,40.8,43.9,41.8,39.4,96,94,92,30.13,29.89,18,3,20,0.28
2013-3-19,66.7,52.3,42.0,48.0,33.4,15.8,97,61,14,30.07,29.88,26,4,27,0.00
2013-3-20,56.1,48.3,40.9,27.9,17.9,12.0,51,30,20,30.15,29.81,14,2,14,0.00
2013-3-21,46.9,40.4,31.6,27.2,14.4,5.7,57,36,20,30.00,29.81,26,5,30,0.00
2013-3-22,51.2,39.0,27.4,26.8,16.8,11.7,62,41,27,30.15,30.00,15,3,15,0.00
2013-3-23,47.4,42.6,38.9,42.6,36.1,26.6,92,78,53,30.10,29.94,8,1,8,0.08
2013-3-24,43.4,41.1,38.8,41.7,39.6,37.7,96,94,91,29.94,29.59,25,3,25,0.95
2013-3-25,46.9,41.5,36.6,39.8,30.0,21.9,97,67,39,29.94,29.59,27,6,30,0.01
2013-3-26,46.7,39.3,29.6,26.8,24.7,22.9,76,57,42,30.22,29.94,19,4,19,0.00
2013-3-27,53.6,42.0,31.2,26.6,23.2,20.2,72,49,27,30.31,30.20,18,3,18,0.00
2013-3-28,57.5,44.3,31.4,26.6,22.3,18.8,73,44,22,30.35,30.22,21,2,21,0.00
2013-3-29,61.4,49.2,34.8,33.0,25.3,20.3,70,41,24,30.40,30.22,14,2,14,0.00
2013-3-30,66.4,55.4,45.7,47.9,43.5,32.8,93,67,43,30.25,30.08,13,2,13,0.06
2013-3-31,71.0,58.7,50.1,56.8,52.2,47.1,95,80,52,30.08,29.85,24,5,24,0.26
2013-4-1,73.4,63.3,57.9,57.4,47.5,33.2,96,63,24,29.97,29.85,21,3,21,0.45
2013-4-2,65.8,55.7,43.7,41.0,35.6,30.7,74,48,29,30.18,29.97,14,2,15,0.00
2013-4-3,61.0,54.0,47.0,34.3,23.7,16.9,45,31,25,30.29,30.12,18,3,18,0.00
2013-4-4,52.1,47.9,37.5,38.1,30.8,27.8,96,56,39,30.27,29.98,20,2,20,0.79
2013-4-5,64.1,48.8,37.1,47.1,41.3,35.8,96,78,47,30.07,29.93,13,2,17,0.01
2013-4-6,70.0,56.9,43.1,43.4,38.4,31.3,80,53,27,30.25,30.07,16,3,16,0.00
2013-4-7,72.5,59.0,41.8,53.2,44.9,37.4,87,61,38,30.30,30.12,19,4,19,0.00
2013-4-8,78.3,66.4,54.8,55.9,53.3,50.8,93,66,39,30.20,30.07,17,4,18,0.00
2013-4-9,82.0,69.8,57.3,61.2,57.1,53.8,93,66,42,30.22,30.10,17,4,17,0.00
2013-4-10,83.9,71.8,59.3,60.9,58.6,56.4,94,66,40,30.14,29.97,16,4,17,0.00
2013-4-11,82.2,70.0,60.1,66.9,62.0,56.5,96,77,51,30.00,29.77,24,6,24,0.03
2013-4-12,80.3,70.7,61.6,67.1,57.8,39.6,96,69,24,29.84,29.66,31,8,32,0.81
2013-4-13,77.2,63.8,48.2,46.1,41.4,35.8,75,47,23,30.03,29.84,11,1,13,0.00
2013-4-14,75.5,65.6,51.8,55.3,44.9,36.4,77,49,30,30.09,29.97,16,3,17,0.00
2013-4-15,71.3,64.7,57.0,60.9,58.1,54.1,94,80,66,30.20,29.98,10,1,10,0.01
2013-4-16,78.7,68.1,59.7,62.2,59.8,57.4,95,76,50,30.30,30.19,11,2,11,0.00
2013-4-17,82.4,70.6,58.7,64.9,61.2,57.2,95,74,48,30.27,30.10,15,2,15,0.00
2013-4-18,79.7,70.4,61.2,64.8,61.1,58.6,94,74,51,30.17,30.00,18,4,18,0.00
2013-4-19,81.8,68.4,53.2,68.3,63.0,45.6,95,84,59,30.01,29.76,32,8,35,0.18
2013-4-20,63.9,54.7,44.2,50.7,37.8,28.5,92,57,28,30.28,29.91,15,2,15,0.00
2013-4-21,63.5,52.7,39.3,42.4,40.0,35.5,92,64,44,30.45,30.27,19,3,19,0.00
2013-4-22,63.4,52.6,41.6,41.1,33.6,24.9,82,52,27,30.43,30.24,22,4,22,0.00
2013-4-23,68.6,56.7,47.8,53.3,47.7,38.6,87,72,55,30.29,30.13,12,2,14,0.00
2013-4-24,74.4,62.4,50.5,59.0,54.4,49.1,97,77,51,30.18,30.03,21,4,22,0.00
2013-4-25,71.7,63.9,56.2,59.3,46.4,33.7,89,57,26,30.27,30.06,19,2,23,0.00
2013-4-26,73.5,60.6,48.3,49.0,40.2,32.1,80,49,29,30.44,30.26,20,3,20,0.00
2013-4-27,66.9,57.8,53.9,56.5,50.6,44.9,96,78,54,30.38,30.25,9,1,9,0.39
2013-4-28,61.8,56.7,53.6,60.4,55.2,51.8,97,95,91,30.27,30.07,15,2,16,1.48
2013-4-29,72.4,61.4,57.3,62.5,59.2,56.5,98,93,68,30.08,29.96,8,1,9,0.23
2013-4-30,73.7,64.4,59.4,62.8,60.3,56.5,98,87,62,30.17,29.99,16,2,16,0.00
2013-5-1,65.2,59.4,53.0,58.5,55.8,51.9,97,88,78,30.28,30.17,17,3,18,0.02
2013-5-2,64.1,59.2,57.1,59.8,57.2,55.9,97,93,84,30.31,30.22,17,4,19,0.07
2013-5-3,68.3,60.4,54.3,56.7,53.7,47.5,95,79,60,30.23,30.11,23,4,24,0.00
2013-5-4,61.9,55.9,49.5,53.2,48.8,43.6,85,77,68,30.13,30.00,24,5,26,0.00
2013-5-5,60.9,55.9,52.0,59.6,53.5,49.1,96,92,83,30.02,29.85,24,6,25,0.40
2013-5-6,68.6,62.5,55.2,60.0,55.0,47.0,97,78,49,29.92,29.83,22,4,24,1.07
2013-5-7,67.0,57.5,46.2,56.7,50.4,44.2,95,78,59,29.98,29.89,12,2,14,0.03
2013-5-8,76.5,64.0,52.3,59.2,54.9,50.9,95,74,47,30.03,29.94,17,2,17,0.00
2013-5-9,81.2,69.4,56.2,61.6,56.9,52.9,95,68,40,30.10,30.00,9,1,11,0.00
2013-5-10,82.8,72.2,60.5,64.5,59.8,55.8,85,67,46,30.09,29.96,19,3,19,0.00
2013-5-11,79.0,71.5,63.4,65.2,62.3,58.8,89,74,57,29.98,29.83,19,4,23,0.00
2013-5-12,73.7,66.0,56.5,61.6,50.2,36.5,95,61,30,30.05,29.84,19,2,22,0.00
2013-5-13,68.5,57.4,45.0,42.5,37.2,28.8,84,50,23,30.19,30.05,17,2,17,0.00
2013-5-14,72.5,59.3,42.4,46.0,39.6,34.3,81,50,31,30.29,30.11,15,2,16,0.00
2013-5-15,87.3,72.0,56.0,62.5,55.9,44.7,78,58,40,30.12,29.95,13,4,16,0.00
2013-5-16,82.0,73.6,63.1,66.2,60.9,56.9,81,65,44,30.03,29.95,13,3,13,0.00
2013-5-17,85.0,73.8,62.6,65.4,61.5,56.6,89,68,41,30.10,30.01,14,3,14,0.00
2013-5-18,75.0,69.8,65.6,68.5,64.3,60.3,95,83,69,30.15,30.07,13,2,14,0.07
2013-5-19,77.3,69.1,65.4,69.9,66.4,63.9,97,91,74,30.13,30.05,15,4,15,0.06
2013-5-20,82.0,71.9,66.4,71.5,67.9,65.2,97,88,65,30.13,30.02,10,2,10,0.39
2013-5-21,82.8,71.0,65.9,73.0,68.0,65.0,98,91,69,30.07,29.96,20,2,21,0.08
2013-5-22,82.6,73.7,66.2,68.5,66.9,65.3,98,81,59,30.03,29.90,15,3,15,0.20
2013-5-23,80.1,70.3,64.2,69.8,65.5,62.6,97,86,64,29.98,29.84,12,1,12,0.07
2013-5-24,72.4,66.8,58.2,63.9,50.6,34.3,94,61,26,30.22,29.88,27,3,27,0.00
2013-5-25,75.7,62.3,43.2,48.8,42.7,35.6,93,52,27,30.34,30.17,14,2,14,0.00
2013-5-26,75.8,65.7,57.6,53.9,46.4,40.5,73,51,36,30.30,30.18,13,2,13,0.00
2013-5-27,82.0,70.2,55.9,61.5,55.7,50.1,84,62,39,30.28,30.16,12,3,12,0.00
2013-5-28,82.5,73.2,62.8,66.7,63.4,60.8,94,73,52,30.25,30.15,14,4,16,0.00
2013-5-29,83.3,73.2,62.5,65.4,62.3,59.5,91,70,50,30.27,30.17,12,3,13,0.00
2013-5-30,84.6,73.7,62.6,66.2,62.9,58.9,96,71,45,30.29,30.17,12,2,12,0.00
2013-5-31,85.8,75.9,66.0,69.0,66.2,61.8,96,74,47,30.24,30.11,12,3,12,0.00
2013-6-1,85.0,76.1,67.0,68.0,66.2,63.5,96,73,51,30.15,30.02,16,4,16,0.00
2013-6-2,84.3,74.6,66.9,69.1,66.7,64.0,97,78,54,30.08,29.90,16,4,17,1.22
2013-6-3,84.0,73.7,67.2,71.6,68.8,66.0,97,86,60,29.97,29.85,15,2,16,0.16
2013-6-4,83.3,74.8,65.4,70.2,67.0,64.2,97,78,61,30.07,29.94,11,2,13,0.00
2013-6-5,80.3,71.7,68.2,72.2,68.7,66.4,97,91,73,30.09,29.98,19,2,19,0.28
2013-6-6,75.1,71.3,68.1,72.7,69.9,67.2,98,96,89,30.00,29.82,16,3,17,0.75
2013-6-7,80.1,70.8,66.4,72.8,68.6,64.7,98,93,76,29.86,29.60,24,3,24,1.06
2013-6-8,82.8,73.3,66.4,71.4,68.2,65.5,98,85,62,30.09,29.84,10,2,10,0.06
2013-6-9,85.3,74.2,68.6,72.4,69.2,66.5,97,85,60,30.16,30.06,26,2,26,0.06
2013-6-10,81.2,73.0,69.0,74.7,71.0,68.1,98,94,74,30.09,29.92,24,5,24,0.79
2013-6-11,89.0,77.1,68.8,72.3,67.9,61.7,97,76,47,29.99,29.93,14,3,14,0.00
2013-6-12,90.6,79.8,68.3,75.3,70.9,65.6,94,75,55,30.01,29.88,12,2,13,0.00
2013-6-13,91.2,81.7,72.5,75.3,71.7,67.9,91,73,48,29.89,29.66,28,4,28,0.00
2013-6-14,81.5,73.3,63.1,68.3,60.8,55.4,94,67,42,30.03,29.76,11,2,22,0.00
2013-6-15,83.5,73.1,59.8,66.1,61.1,56.8,93,68,43,30.15,30.03,11,1,11,0.00
2013-6-16,84.0,74.3,64.1,69.6,65.6,60.5,89,75,54,30.17,30.03,16,4,16,0.00
2013-6-17,85.2,74.3,68.8,73.7,68.7,64.4,97,83,64,30.06,29.93,14,3,17,0.52
2013-6-18,83.7,74.1,69.2,72.9,70.3,68.3,98,89,68,30.00,29.80,23,4,23,0.47
2013-6-19,82.0,74.4,69.4,70.4,67.9,63.7,97,82,58,30.11,29.90,11,1,11,0.02
2013-6-20,81.7,73.8,65.8,66.9,65.1,63.3,95,76,56,30.23,30.10,0,0,0,0.00
2013-6-21,81.6,73.1,61.6,65.1,61.8,58.2,93,69,53,30.26,30.17,0,0,0,0.00
2013-6-22,83.3,73.5,61.8,70.7,66.0,58.7,93,78,59,30.22,30.12,0,0,0,0.00
2013-6-23,82.7,74.0,68.5,73.9,70.2,67.0,97,88,70,30.21,30.12,0,0,0,0.32
2013-6-24,83.8,73.2,69.4,75.7,71.0,66.3,98,93,74,30.23,30.12,35,1,35,0.59
2013-6-25,87.5,75.2,69.4,74.9,70.8,68.8,98,87,58,30.15,30.03,23,3,23,0.01
2013-6-26,88.2,77.2,70.1,76.3,71.1,66.4,97,83,60,30.06,29.91,29,3,29,0.00
2013-6-27,86.5,76.9,70.5,76.7,73.1,66.7,97,89,67,29.95,29.74,28,4,30,0.62
2013-6-28,90.0,81.0,73.3,76.6,73.7,69.8,98,80,55,29.76,29.59,26,3,26,0.00
2013-6-29,84.7,75.8,71.2,73.5,70.5,68.4,94,84,65,29.73,29.62,27,3,27,0.00
2013-6-30,83.6,73.3,66.0,76.0,70.6,65.1,97,92,74,29.86,29.70,22,2,22,1.81
2013-7-1,80.5,72.7,66.1,73.6,69.8,65.2,98,91,76,29.99,29.82,17,3,17,0.18
2013-7-2,78.1,72.6,71.0,72.4,70.7,69.2,97,94,79,30.15,29.99,23,5,23,0.37
2013-7-3,79.8,74.3,72.1,75.8,72.8,71.2,98,95,84,30.22,30.13,12,4,13,0.27
2013-7-4,85.5,76.7,72.0,75.5,72.8,70.3,98,88,65,30.24,30.16,22,6,22,0.09
2013-7-5,82.7,75.7,71.9,76.0,72.9,70.9,98,91,74,30.25,30.18,17,3,17,0.09
2013-7-6,83.5,74.9,70.1,77.7,72.5,69.3,98,92,78,30.25,30.12,19,2,22,0.82
2013-7-7,84.8,76.6,71.6,77.9,73.3,70.2,98,90,73,30.20,30.07,16,3,16,0.21
2013-7-8,86.7,77.1,71.0,76.3,73.0,69.7,98,88,69,30.19,30.11,10,2,12,0.01
2013-7-9,86.9,77.8,72.6,77.6,73.3,70.7,97,87,66,30.18,30.07,19,3,19,0.00
2013-7-10,86.0,76.3,70.3,76.3,72.7,69.2,98,89,69,30.14,29.97,21,2,21,0.22
2013-7-11,82.7,73.5,69.9,76.8,71.6,68.8,98,94,76,29.99,29.88,14,2,16,0.91
2013-7-12,80.0,73.0,68.4,74.9,71.3,67.5,98,95,81,30.01,29.88,12,1,15,0.40
2013-7-13,80.8,73.2,68.8,73.9,70.6,67.9,98,92,78,30.11,30.00,14,2,14,0.10
2013-7-14,84.3,76.0,70.1,77.1,72.6,68.9,98,90,71,30.28,30.09,30,4,31,0.50
2013-7-15,86.8,77.4,70.1,74.9,72.3,69.1,98,85,62,30.32,30.24,13,1,13,0.00
2013-7-16,92.3,81.7,71.6,76.4,73.2,70.7,98,77,53,30.31,30.21,7,1,7,0.00
2013-7-17,88.0,77.6,70.6,78.7,73.3,69.0,95,87,69,30.23,30.12,14,1,14,0.00
2013-7-18,88.5,78.6,67.8,77.8,72.4,67.2,98,83,61,30.18,30.06,9,1,9,0.00
2013-7-19,87.5,80.2,72.9,75.9,73.7,71.2,97,82,61,30.12,29.99,13,3,14,0.00
2013-7-20,85.0,77.7,72.6,75.7,73.3,71.5,97,87,70,30.06,29.93,14,3,15,0.00
2013-7-21,86.2,76.4,71.8,77.0,73.1,70.9,98,90,68,30.02,29.91,13,2,14,0.03
2013-7-22,84.9,76.2,70.6,76.1,72.1,70.0,98,88,71,30.00,29.85,17,3,17,0.02
2013-7-23,86.8,79.3,73.1,74.1,72.5,70.3,96,81,61,29.88,29.77,13,3,13,0.00
2013-7-24,92.0,78.0,69.8,75.3,71.5,67.1,97,82,51,29.85,29.74,12,1,12,0.31
2013-7-25,84.6,74.7,68.8,72.4,69.6,67.9,98,85,64,30.02,29.80,12,1,13,0.00
2013-7-26,85.6,75.8,66.9,71.5,69.0,65.7,97,81,58,30.11,30.01,10,2,10,0.00
2013-7-27,80.5,74.3,71.8,74.0,71.5,69.2,96,91,77,30.04,29.96,18,4,18,0.05
2013-7-28,85.0,79.0,74.5,73.7,72.8,72.0,92,82,69,30.00,29.94,7,3,8,0.02
2013-7-29,87.8,77.6,70.9,72.7,70.9,68.0,97,81,54,30.16,30.00,8,1,8,0.00
2013-7-30,86.2,76.5,69.4,72.8,69.3,64.1,98,80,55,30.21,30.13,11,1,11,0.00
2013-7-31,81.7,74.5,70.9,74.8,70.7,67.9,97,88,75,30.16,30.00,21,2,21,0.26
2013-8-1,84.8,74.9,70.0,75.9,71.6,68.6,98,90,69,30.01,29.88,10,2,13,0.00
2013-8-2,88.3,77.1,68.3,75.7,72.0,67.5,98,85,63,30.04,29.92,10,1,10,0.00
2013-8-3,86.7,78.8,72.6,76.9,73.3,70.3,98,84,62,30.03,29.94,13,2,13,0.00
2013-8-4,85.5,77.8,70.2,73.5,70.3,66.7,97,79,59,30.02,29.93,13,1,13,0.00
2013-8-5,84.5,76.2,68.4,69.4,66.9,62.5,93,74,51,30.08,29.99,12,3,12,0.00
2013-8-6,74.5,70.1,67.5,70.8,67.4,65.3,97,92,81,30.08,29.98,16,3,16,2.46
2013-8-7,83.3,75.1,68.7,72.9,70.0,64.8,98,85,58,30.11,30.02,13,2,13,0.00
2013-8-8,86.4,77.7,71.3,75.5,72.4,69.7,96,84,66,30.09,30.00,10,2,10,0.00
2013-8-9,87.8,79.1,72.6,77.8,74.5,71.5,97,86,69,30.10,30.01,14,3,14,0.00
2013-8-10,89.3,79.2,73.0,78.3,74.5,71.9,97,87,63,30.13,30.03,22,3,22,0.11
2013-8-11,89.8,79.0,71.4,77.8,73.9,70.5,98,85,62,30.14,30.03,12,2,12,0.11
2013-8-12,90.1,80.8,71.5,77.7,73.8,69.9,96,81,58,30.08,29.94,14,1,14,0.01
2013-8-13,88.7,79.1,71.3,77.1,73.3,69.8,97,83,61,29.98,29.81,17,3,18,0.00
2013-8-14,77.3,72.2,66.8,71.6,66.9,62.5,96,84,67,30.08,29.85,12,1,13,0.00
2013-8-15,72.7,67.5,61.4,63.2,60.2,56.3,91,78,58,30.16,30.05,16,2,17,0.00
2013-8-16,65.2,63.2,60.3,62.7,60.5,57.6,96,91,84,30.17,30.08,12,2,12,0.27
2013-8-17,67.0,64.1,61.5,65.8,63.1,60.5,97,97,92,30.19,30.13,12,1,12,0.65
2013-8-18,84.6,73.3,65.7,74.9,69.3,64.8,98,88,65,30.24,30.13,12,0,13,0.05
2013-8-19,76.7,71.7,69.7,71.8,69.8,68.2,97,94,83,30.19,30.09,9,1,10,0.52
2013-8-20,80.8,73.1,66.0,74.7,70.5,65.1,98,92,79,30.20,30.11,5,0,5,0.01
2013-8-21,84.6,75.5,71.1,75.9,72.5,70.2,98,91,74,30.25,30.11,20,1,20,0.00
2013-8-22,89.2,77.9,69.5,75.1,71.8,68.6,98,83,59,30.17,30.01,11,1,11,0.00
2013-8-23,88.1,76.2,68.1,75.0,70.4,66.8,97,84,57,30.06,29.96,8,1,8,0.00
2013-8-24,80.3,72.6,66.4,69.1,64.2,60.4,91,76,53,30.29,30.06,16,3,16,0.00
2013-8-25,79.0,70.0,59.6,65.2,61.2,57.9,96,75,50,30.40,30.28,18,2,18,0.00
2013-8-26,82.8,69.2,56.8,66.8,60.9,55.1,96,77,52,30.33,30.14,6,1,6,0.00
2013-8-27,87.8,74.9,63.6,73.5,67.1,59.5,92,78,55,30.16,30.00,11,1,11,0.00
2013-8-28,87.2,78.4,68.1,75.5,71.6,66.2,95,80,59,30.03,29.93,11,2,11,0.00
2013-8-29,91.1,80.4,72.2,76.2,72.9,70.5,95,79,54,29.98,29.88,11,2,11,0.00
2013-8-30,86.8,77.1,69.8,71.6,68.5,63.8,93,76,51,30.06,29.95,14,2,14,0.00
2013-8-31,86.4,76.5,68.4,75.5,71.6,66.7,97,85,66,29.99,29.86,14,2,15,0.00
2013-9-1,87.9,77.2,70.2,77.1,72.3,69.0,98,86,65,29.94,29.81,16,3,16,0.00
2013-9-2,88.5,77.4,71.0,77.3,72.2,69.4,97,85,60,29.93,29.82,10,1,10,0.00
2013-9-3,79.8,73.5,71.6,71.7,70.8,69.3,97,92,71,29.96,29.83,7,1,7,0.00
2013-9-4,87.0,76.5,65.6,71.0,66.5,62.3,94,73,53,30.09,29.96,12,1,12,0.00
2013-9-5,87.3,76.3,66.3,72.1,68.8,64.8,96,79,56,30.13,30.04,7,1,7,0.00
2013-9-6,83.3,73.7,64.2,68.3,62.3,58.8,94,69,45,30.18,30.07,14,2,14,0.00
2013-9-7,83.5,72.5,60.9,68.0,63.7,58.8,94,75,51,30.15,30.00,9,1,9,0.00
2013-9-8,86.0,76.0,65.3,71.6,66.3,62.9,93,74,49,30.01,29.93,10,1,10,0.00
2013-9-9,88.3,77.8,67.5,70.6,66.5,62.2,93,70,43,30.15,30.00,13,2,14,0.00
2013-9-10,88.8,77.9,68.2,72.5,68.8,64.6,96,76,47,30.25,30.15,10,2,10,0.00
2013-9-11,88.0,77.1,66.8,71.1,67.6,60.7,96,74,45,30.23,30.09,11,2,11,0.00
2013-9-12,88.3,76.4,66.4,71.1,68.0,64.4,94,77,54,30.09,29.85,18,2,18,0.00
2013-9-13,85.0,75.7,68.1,69.4,63.7,52.0,96,69,43,29.90,29.77,14,2,14,0.00
2013-9-14,78.0,68.4,59.9,59.4,54.7,49.9,77,62,50,30.12,29.89,18,3,19,0.00
2013-9-15,82.9,71.3,60.0,67.9,62.2,55.5,90,74,56,30.21,30.10,11,1,11,0.00
2013-9-16,85.5,76.5,70.5,72.6,67.7,62.2,96,77,48,30.15,30.04,12,1,12,0.00
2013-9-17,76.3,69.8,63.8,64.5,58.1,54.2,79,67,51,30.31,30.14,17,3,18,0.00
2013-9-18,76.1,64.7,54.0,60.5,54.8,51.6,93,72,51,30.30,30.18,12,2,12,0.00
2013-9-19,79.3,66.6,56.4,64.4,58.7,53.0,92,77,57,30.21,30.10,6,1,6,0.00
2013-9-20,83.9,70.9,62.2,69.2,64.3,59.5,91,80,58,30.11,29.93,10,2,10,0.00
2013-9-21,76.1,70.7,65.3,70.1,67.3,63.8,96,89,77,29.94,29.63,28,4,28,0.62
2013-9-22,76.5,66.2,60.4,67.3,60.5,57.6,96,83,54,29.84,29.63,24,3,24,0.03
2013-9-23,76.2,72.5,65.0,59.8,58.3,56.8,80,61,53,30.05,30.02,8,1,8,0.00
2013-9-25,67.6,64.6,62.6,63.8,62.2,60.9,96,92,81,29.97,29.88,6,0,7,0.68
2013-9-26,75.8,66.4,59.2,62.2,59.0,54.0,97,79,51,30.04,29.89,13,1,13,0.01
2013-9-27,74.5,64.1,53.0,59.3,55.0,51.3,95,74,51,30.19,30.03,16,2,17,0.00
2013-9-28,72.2,62.3,52.5,56.2,53.4,50.8,94,74,52,30.26,30.17,19,2,19,0.00
2013-9-29,72.3,62.2,54.0,58.7,54.8,50.7,93,78,55,30.19,30.05,13,1,14,0.00
2013-9-30,76.6,63.3,52.8,60.3,54.9,51.1,95,76,50,30.12,30.02,7,1,8,0.00
2013-10-1,80.6,68.0,53.0,62.7,58.1,51.0,96,73,47,30.16,30.06,11,1,11,0.00
2013-10-2,83.8,70.9,58.1,65.5,61.3,56.1,94,74,49,30.17,30.07,9,1,9,0.00
2013-10-3,82.9,71.7,62.1,66.7,62.4,59.1,95,75,46,30.15,30.07,11,2,12,0.00
2013-10-4,86.2,72.7,60.3,67.6,63.4,59.1,96,75,48,30.17,30.08,7,1,7,0.00
2013-10-5,86.7,74.5,62.7,69.0,64.4,61.2,96,73,47,30.15,30.03,8,1,8,0.00
2013-10-6,82.8,73.0,64.0,69.4,65.4,61.8,93,78,56,30.07,29.91,13,3,13,0.00
2013-10-7,78.6,71.9,66.0,72.9,68.6,55.8,96,90,71,29.99,29.83,15,3,15,0.36
2013-10-8,66.0,60.0,54.9,56.2,51.3,48.1,91,73,62,30.20,29.98,24,4,24,0.09
2013-10-9,71.7,61.4,51.6,55.9,51.0,46.4,83,69,54,30.22,30.12,17,2,20,0.00
2013-10-10,71.9,62.8,52.3,62.3,56.0,48.7,90,79,67,30.12,29.98,16,2,16,0.00
2013-10-11,78.8,70.1,62.7,61.8,60.1,57.7,89,72,51,30.01,29.92,13,1,13,0.00
2013-10-12,74.8,67.9,61.2,63.9,61.5,58.2,93,80,66,30.09,29.97,9,1,9,0.00
2013-10-13,69.1,65.7,63.1,63.6,62.2,60.9,94,88,82,30.22,30.09,14,1,14,0.00
2013-10-14,66.9,63.6,60.7,62.3,60.5,58.2,96,90,83,30.24,30.16,15,2,16,0.02
2013-10-15,74.0,64.6,57.2,58.4,54.8,48.9,94,73,42,30.20,30.05,16,2,16,0.00
2013-10-16,74.7,63.6,53.3,62.9,57.5,51.7,95,82,63,30.10,29.97,8,1,8,0.00
2013-10-17,72.9,65.6,60.7,65.6,62.7,58.9,96,90,75,29.99,29.89,14,2,14,0.04
2013-10-18,67.0,63.7,59.0,65.4,59.6,53.8,97,87,74,30.04,29.91,13,1,13,0.00
2013-10-19,69.1,62.4,57.3,62.3,57.0,51.8,96,83,61,29.98,29.87,13,2,13,0.00
2013-10-20,67.7,56.9,48.0,54.2,47.5,42.8,96,73,46,30.12,29.94,16,1,17,0.00
2013-10-21,70.2,57.1,44.6,54.5,49.1,41.8,93,76,51,30.17,30.02,10,1,10,0.00
2013-10-22,64.3,59.7,55.5,59.6,56.5,52.9,95,89,82,30.05,29.83,8,2,8,0.00
2013-10-23,66.8,57.6,43.8,57.4,45.6,31.4,97,68,34,30.06,29.75,24,4,24,0.00
2013-10-24,60.9,48.8,35.2,43.4,36.3,31.5,93,65,41,30.23,30.06,15,1,15,0.00
2013-10-25,53.4,46.9,38.1,42.4,34.5,29.1,87,63,40,30.41,30.18,17,1,17,0.00
2013-10-26,58.5,44.4,29.2,36.5,31.7,27.4,94,65,36,30.41,30.14,15,2,15,0.00
2013-10-27,69.3,55.3,40.5,49.1,43.0,36.1,88,65,45,30.18,30.08,11,2,12,0.00
2013-10-28,70.0,57.6,50.5,58.9,52.8,47.9,94,85,64,30.28,30.13,7,1,7,0.01
2013-10-29,73.3,62.2,53.0,58.0,53.8,51.6,96,76,48,30.36,30.25,10,1,10,0.00
2013-10-30,78.0,64.0,52.2,58.7,54.7,49.8,93,74,48,30.33,30.17,16,2,17,0.00
2013-10-31,72.9,65.4,57.4,64.3,58.4,54.6,91,79,61,30.20,29.94,17,4,17,0.00
2013-11-1,70.0,64.8,57.9,65.3,61.9,56.8,97,90,83,29.94,29.71,22,5,22,0.62
2013-11-2,69.9,58.4,46.1,58.2,51.3,41.4,97,80,37,30.00,29.74,19,2,19,0.06
2013-11-3,61.0,50.6,41.2,43.9,38.8,35.4,92,67,39,30.36,30.00,16,2,16,0.00
2013-11-4,58.7,48.0,37.2,38.0,35.1,31.5,89,63,37,30.54,30.35,15,2,16,0.00
2013-11-5,58.7,48.4,37.5,49.2,41.4,32.0,88,77,65,30.57,30.44,14,2,16,0.00
2013-11-6,72.6,59.6,47.9,57.9,52.2,46.2,95,78,57,30.44,30.13,10,1,10,0.00
2013-11-7,70.6,58.3,46.1,60.9,50.3,34.0,96,77,43,30.14,29.96,18,2,22,0.00
2013-11-8,58.2,47.6,37.1,35.3,29.1,22.6,81,52,26,30.35,30.14,14,1,15,0.00
2013-11-9,59.7,46.9,32.2,36.2,31.1,26.5,87,57,31,30.42,30.25,15,2,16,0.00
2013-11-10,72.0,56.2,43.6,41.4,36.8,33.4,79,51,28,30.27,30.15,11,1,11,0.00
2013-11-11,62.4,51.0,40.8,36.5,31.0,27.4,72,47,30,30.37,30.18,14,2,14,0.00
2013-11-12,65.3,45.7,31.3,42.3,34.3,21.3,94,68,32,30.48,30.09,20,3,29,0.02
2013-11-13,45.2,35.2,26.0,22.8,19.8,17.6,77,55,34,30.60,30.47,20,2,20,0.01
2013-11-14,56.9,40.9,25.4,33.4,23.7,20.8,100,55,26,30.55,30.38,13,2,13,0.00
2013-11-15,61.4,49.7,34.9,51.6,38.1,21.2,94,65,44,30.39,30.21,10,1,10,0.07
2013-11-16,65.6,56.6,51.1,57.8,53.7,50.0,96,90,75,30.29,30.20,8,1,8,0.00
2013-11-17,70.2,61.1,52.4,64.1,58.0,50.6,97,90,71,30.23,29.94,15,3,17,0.08
2013-11-18,75.5,66.5,52.7,66.8,52.6,31.8,97,66,34,29.99,29.85,18,4,18,0.10
2013-11-19,56.2,49.7,43.8,34.6,27.7,23.6,55,43,29,30.29,29.98,20,3,20,0.00
2013-11-20,54.2,46.1,36.6,36.4,32.8,28.6,74,60,48,30.46,30.27,19,3,19,0.00
2013-11-21,60.9,51.4,44.4,47.9,42.0,34.8,80,70,59,30.50,30.39,15,2,16,0.00
2013-11-22,67.1,58.9,52.3,59.7,53.7,46.1,93,83,74,30.41,30.14,16,2,16,0.00
2013-11-23,61.8,57.2,44.8,58.5,47.7,22.0,96,73,37,30.20,30.07,17,2,17,0.02
2013-11-24,44.7,36.2,28.4,24.9,11.8,3.5,51,37,25,30.56,30.20,19,3,20,0.00
2013-11-25,43.4,33.4,21.3,16.6,10.5,5.6,71,40,23,30.62,30.37,10,1,10,0.00
2013-11-26,64.1,41.6,32.4,63.1,34.6,11.4,97,81,32,30.37,29.63,30,3,30,1.23
2013-11-27,46.5,40.0,29.0,45.7,35.5,18.8,97,84,56,30.25,29.56,24,4,24,0.67
2013-11-28,47.7,34.2,23.6,28.1,22.2,18.5,83,63,39,30.53,30.24,8,1,8,0.00
2013-11-29,52.6,40.2,27.8,32.9,26.7,24.1,90,61,35,30.62,30.51,12,2,12,0.00
2013-11-30,47.9,38.6,28.9,30.8,27.0,23.6,81,64,45,30.67,30.41,15,2,16,0.00
2013-12-1,54.7,44.1,33.1,43.0,35.6,27.9,87,72,55,30.41,30.06,8,1,8,0.00
2013-12-2,60.1,48.5,38.2,43.5,40.4,35.6,94,75,48,30.06,29.85,8,1,9,0.00
2013-12-3,59.5,52.4,47.0,52.5,47.4,41.5,95,83,68,30.00,29.90,11,3,11,0.05
2013-12-4,63.2,58.7,53.9,59.5,57.2,52.5,97,95,87,30.12,29.97,13,2,13,0.03
2013-12-5,65.5,62.8,59.6,64.9,61.8,58.8,98,97,93,30.16,30.06,14,4,14,0.57
2013-12-6,76.5,68.5,61.9,66.1,63.6,60.3,97,85,65,30.11,29.99,24,6,24,0.00
2013-12-7,67.9,55.5,46.1,64.3,51.2,39.9,95,85,77,30.43,30.02,24,5,26,0.02
2013-12-8,46.0,38.5,34.8,39.9,35.6,33.6,96,90,71,30.45,30.31,17,2,17,0.11
2013-12-9,46.3,40.5,34.9,45.4,39.6,33.9,97,97,96,30.31,30.08,12,1,12,0.37
2013-12-10,54.1,47.1,36.2,50.9,42.1,25.7,98,84,51,30.36,29.94,19,2,23,0.35
2013-12-11,50.5,39.3,27.7,32.1,28.0,24.2,92,66,39,30.50,30.33,8,1,8,0.00
2013-12-12,47.7,38.2,30.1,31.1,23.8,15.6,92,59,29,30.47,30.32,12,2,12,0.00
2013-12-13,52.2,39.9,26.5,29.6,25.1,16.6,83,57,39,30.44,30.30,13,2,14,0.00
2013-12-14,52.9,44.1,40.3,51.4,38.8,28.1,97,83,55,30.30,29.81,27,4,27,0.75
2013-12-15,54.3,44.9,37.0,46.1,38.6,28.3,97,80,52,30.14,29.77,14,2,14,0.09
2013-12-16,56.3,42.6,31.1,37.7,32.6,27.3,86,69,44,30.24,30.14,14,3,14,0.00
2013-12-17,62.6,49.1,34.3,38.5,34.2,29.9,85,58,35,30.19,30.00,25,5,25,0.00
2013-12-18,52.2,44.0,35.1,36.2,23.8,15.9,63,46,28,30.33,30.07,15,2,15,0.00
2013-12-19,61.2,46.0,33.2,31.1,27.8,22.3,82,52,24,30.40,30.27,16,4,16,0.00
2013-12-20,64.4,53.7,44.2,53.0,45.9,31.0,92,75,54,30.29,30.17,16,3,16,0.00
2013-12-21,72.1,62.1,51.4,65.1,57.3,48.9,94,85,70,30.18,30.05,27,5,27,0.00
2013-12-22,74.0,67.6,63.3,67.7,65.1,62.4,97,92,73,30.10,30.01,16,5,20,1.26
2013-12-23,64.2,60.0,48.5,63.3,58.1,37.6,97,94,68,30.18,30.02,20,3,22,2.96
2013-12-24,48.5,42.1,31.4,38.3,28.3,16.4,78,58,43,30.49,30.16,18,3,18,0.00
2013-12-25,41.4,32.2,24.4,24.3,15.2,10.1,70,51,32,30.61,30.43,11,1,11,0.00
2013-12-26,53.6,41.4,34.0,30.1,25.7,19.9,81,55,35,30.43,30.28,11,0,11,0.00
2013-12-27,51.6,41.3,30.2,27.4,23.5,20.6,76,51,32,30.51,30.38,13,1,13,0.00
2013-12-28,53.5,42.2,27.8,38.2,28.1,22.9,83,59,37,30.46,30.14,6,0,6,0.02
2013-12-29,51.4,46.6,41.0,48.9,45.1,38.1,97,94,80,30.16,29.82,17,3,17,1.19
2013-12-30,51.9,45.5,37.2,46.2,42.4,36.4,97,89,70,30.15,29.97,8,1,8,0.01
2013-12-31,41.9,40.2,36.8,33.6,31.5,27.2,74,71,66,30.40,30.38,4,0,5,0.00
2014-1-1,50.8,43.3,34.7,37.9,34.8,30.9,93,73,54,30.44,30.18,8,1,8,0.00
2014-1-2,50.4,45.4,39.2,47.9,42.7,30.0,96,90,70,30.18,29.67,25,2,25,0.16